createdAt,value
2023-01-01T00:00:22.428Z,100609.63
2023-01-01T00:02:54.564Z,100612.50
2023-01-01T00:05:21.820Z,100610.13
2023-01-01T00:07:48.657Z,100607.25
2023-01-01T00:10:30.980Z,100590.59
2023-01-01T00:12:58.558Z,100610.56
2023-01-01T00:15:26.469Z,100610.56
2023-01-01T00:17:53.938Z,100611.28
2023-01-01T00:20:20.872Z,100593.59
2023-01-01T00:22:56.304Z,100589.91
2023-01-01T00:25:24.543Z,100601.97
2023-01-01T00:27:51.751Z,100597.47
2023-01-01T00:30:18.808Z,100606.06
2023-01-01T00:32:54.607Z,100608.47
2023-01-01T00:35:25.911Z,100609.63
2023-01-01T00:37:53.475Z,100615.63
2023-01-01T00:40:20.589Z,100624.13
2023-01-01T00:42:47.660Z,100615.25
2023-01-01T00:45:20.993Z,100622.06
2023-01-01T00:47:50.702Z,100620.78
2023-01-01T00:50:19.249Z,100625.28
2023-01-01T00:53:24.356Z,100626.81
2023-01-01T01:21:44.730Z,100628.69
2023-01-01T01:31:15.622Z,100626.91
2023-01-01T01:33:46.331Z,100639.38
2023-01-01T01:36:14.305Z,100629.44
2023-01-01T01:38:41.418Z,100634.16
2023-01-01T01:41:08.761Z,100645.28
2023-01-01T01:43:35.622Z,100640.91
2023-01-01T01:46:08.464Z,100638.66
2023-01-01T01:48:40.085Z,100622.97
2023-01-01T01:51:07.519Z,100639.47
2023-01-01T01:53:38.795Z,100657.03
2023-01-01T01:56:13.089Z,100640.75
2023-01-01T01:58:40.347Z,100651.63
2023-01-01T02:01:07.707Z,100660.63
2023-01-01T02:03:44.493Z,100655.16
2023-01-01T02:06:13.245Z,100676.00
2023-01-01T02:08:40.167Z,100671.00
2023-01-01T02:11:07.559Z,100679.03
2023-01-01T02:13:38.906Z,100677.34
2023-01-01T02:16:31.673Z,100675.88
2023-01-01T02:19:36.287Z,100691.72
2023-01-01T02:22:12.326Z,100685.63
2023-01-01T02:24:48.343Z,100683.84
2023-01-01T02:27:38.558Z,100684.47
2023-01-01T02:30:07.913Z,100668.91
2023-01-01T02:32:39.039Z,100687.06
2023-01-01T02:35:29.445Z,100694.25
2023-01-01T02:37:59.687Z,100677.38
2023-01-01T02:40:27.961Z,100691.47
2023-01-01T02:42:56.017Z,100677.19
2023-01-01T02:45:23.281Z,100688.34
2023-01-01T02:47:50.171Z,100696.13
2023-01-01T02:50:21.285Z,100685.56
2023-01-01T02:53:07.456Z,100701.41
2023-01-01T02:55:49.966Z,100700.94
2023-01-01T02:58:43.755Z,100703.09
2023-01-01T03:01:29.859Z,100694.56
2023-01-01T03:04:23.910Z,100710.06
2023-01-01T03:07:15.249Z,100703.66
2023-01-01T03:09:56.442Z,100711.47
2023-01-01T03:12:44.998Z,100687.41
2023-01-01T03:15:33.989Z,100722.00
2023-01-01T03:18:11.732Z,100707.56
2023-01-01T03:20:42.887Z,100705.25
2023-01-01T03:23:16.612Z,100712.31
2023-01-01T03:25:48.667Z,100734.84
2023-01-01T03:28:20.298Z,100710.88
2023-01-01T03:30:48.958Z,100723.06
2023-01-01T03:33:43.793Z,100736.47
2023-01-01T03:36:30.382Z,100740.81
2023-01-01T03:39:20.922Z,100732.63
2023-01-01T03:42:10.730Z,100711.63
2023-01-01T03:44:47.854Z,100730.69
2023-01-01T03:47:15.053Z,100737.09
2023-01-01T03:49:42.606Z,100746.03
2023-01-01T03:52:23.868Z,100746.97
2023-01-01T03:55:12.188Z,100749.97
2023-01-01T03:57:42.242Z,100735.56
2023-01-01T04:00:36.909Z,100724.59
2023-01-01T04:03:13.638Z,100741.03
2023-01-01T04:05:41.781Z,100717.41
2023-01-01T04:08:09.757Z,100713.63
2023-01-01T04:10:40.158Z,100723.47
2023-01-01T04:13:07.852Z,100758.03
2023-01-01T04:15:36.213Z,100757.59
2023-01-01T04:18:03.817Z,100729.78
2023-01-01T04:20:31.442Z,100714.78
2023-01-01T04:22:59.498Z,100704.88
2023-01-01T04:25:27.112Z,100726.84
2023-01-01T04:27:54.614Z,100723.19
2023-01-01T04:30:21.611Z,100720.00
2023-01-01T04:32:48.511Z,100748.25
2023-01-01T04:35:16.366Z,100770.19
2023-01-01T04:37:44.742Z,100754.72
2023-01-01T04:40:13.055Z,100769.00
2023-01-01T04:42:40.509Z,100772.13
2023-01-01T04:45:08.584Z,100761.53
2023-01-01T04:47:35.537Z,100774.28
2023-01-01T04:50:02.948Z,100785.19
2023-01-01T04:52:29.821Z,100802.13
2023-01-01T04:55:07.514Z,100801.44
2023-01-01T04:57:35.579Z,100795.28
2023-01-01T05:00:03.746Z,100800.78
2023-01-01T05:02:32.217Z,100800.13
2023-01-01T05:04:59.077Z,100804.91
2023-01-01T05:07:25.924Z,100798.50
2023-01-01T05:09:52.946Z,100788.41
2023-01-01T05:12:20.821Z,100811.91
2023-01-01T05:14:47.700Z,100813.75
2023-01-01T05:17:14.980Z,100824.78
2023-01-01T05:19:42.787Z,100815.91
2023-01-01T05:22:11.085Z,100809.03
2023-01-01T05:24:38.271Z,100810.97
2023-01-01T05:27:06.538Z,100819.66
2023-01-01T05:29:33.375Z,100830.25
2023-01-01T05:32:00.366Z,100836.31
2023-01-01T05:36:56.892Z,100844.56
2023-01-01T05:39:23.887Z,100837.97
2023-01-01T05:41:51.978Z,100846.00
2023-01-01T05:44:21.971Z,100858.00
2023-01-01T05:46:48.901Z,100847.00
2023-01-01T05:49:15.661Z,100846.31
2023-01-01T05:56:39.079Z,100842.44
2023-01-01T05:59:05.950Z,100843.25
2023-01-01T06:01:33.131Z,100844.25
2023-01-01T06:04:01.390Z,100842.44
2023-01-01T06:06:32.312Z,100844.69
2023-01-01T06:09:01.261Z,100868.78
2023-01-01T06:11:28.802Z,100868.31
2023-01-01T06:13:58.511Z,100874.25
2023-01-01T06:16:26.624Z,100871.56
2023-01-01T06:18:53.956Z,100878.94
2023-01-01T06:21:22.986Z,100891.88
2023-01-01T06:23:50.314Z,100908.81
2023-01-01T06:26:19.554Z,100898.94
2023-01-01T06:28:47.268Z,100916.22
2023-01-01T06:31:16.771Z,100911.75
2023-01-01T06:33:44.029Z,100917.06
2023-01-01T06:36:12.647Z,100887.97
2023-01-01T06:38:42.126Z,100904.63
2023-01-01T06:41:13.278Z,100917.47
2023-01-01T06:43:40.939Z,100904.34
2023-01-01T06:46:15.387Z,100929.56
2023-01-01T06:48:43.115Z,100914.59
2023-01-01T06:51:12.112Z,100915.53
2023-01-01T06:53:39.495Z,100928.44
2023-01-01T06:56:07.154Z,100938.38
2023-01-01T06:58:35.231Z,100937.69
2023-01-01T07:01:08.639Z,100944.78
2023-01-01T07:04:01.978Z,100945.53
2023-01-01T07:06:30.551Z,100938.13
2023-01-01T07:08:57.613Z,100958.78
2023-01-01T07:11:25.162Z,100962.81
2023-01-01T07:13:57.147Z,100969.72
2023-01-01T07:16:24.691Z,100972.78
2023-01-01T07:18:52.335Z,100972.56
2023-01-01T07:21:29.582Z,100973.38
2023-01-01T07:23:58.829Z,100977.00
2023-01-01T07:26:27.121Z,100985.75
2023-01-01T07:28:54.168Z,100984.97
2023-01-01T07:31:23.799Z,101010.38
2023-01-01T07:33:51.223Z,101008.25
2023-01-01T07:36:18.012Z,101000.09
2023-01-01T07:38:44.902Z,100995.78
2023-01-01T07:41:11.718Z,100994.28
2023-01-01T07:43:38.949Z,100995.50
2023-01-01T07:46:05.891Z,101003.41
2023-01-01T07:48:39.526Z,101009.88
2023-01-01T07:51:07.229Z,101012.66
2023-01-01T07:53:34.665Z,101026.09
2023-01-01T07:56:01.813Z,101040.94
2023-01-01T07:58:28.756Z,101039.38
2023-01-01T08:00:55.882Z,101038.91
2023-01-01T08:03:23.469Z,101043.41
2023-01-01T08:05:50.950Z,101058.44
2023-01-01T08:08:17.674Z,101057.72
2023-01-01T08:10:44.644Z,101052.09
2023-01-01T08:13:11.377Z,101065.03
2023-01-01T08:15:38.255Z,101054.06
2023-01-01T08:18:06.487Z,101059.00
2023-01-01T08:20:33.949Z,101073.00
2023-01-01T08:23:07.084Z,101073.41
2023-01-01T08:25:35.206Z,101091.94
2023-01-01T08:28:02.069Z,101085.84
2023-01-01T08:30:29.036Z,101082.69
2023-01-01T08:32:56.000Z,101063.47
2023-01-01T08:35:25.505Z,101081.47
2023-01-01T08:37:52.608Z,101090.53
2023-01-01T08:40:19.480Z,101106.38
2023-01-01T08:42:46.989Z,101111.41
2023-01-01T08:45:13.807Z,101099.16
2023-01-01T08:47:40.756Z,101106.72
2023-01-01T08:50:08.439Z,101120.22
2023-01-01T08:52:35.227Z,101105.06
2023-01-01T08:55:01.922Z,101103.31
2023-01-01T08:57:31.897Z,101111.91
2023-01-01T08:59:58.841Z,101120.19
2023-01-01T09:02:25.842Z,101112.03
2023-01-01T09:04:52.822Z,101123.81
2023-01-01T09:07:20.662Z,101129.72
2023-01-01T09:09:50.251Z,101129.72
2023-01-01T09:12:17.402Z,101125.53
2023-01-01T09:14:47.795Z,101137.59
2023-01-01T09:17:14.699Z,101138.84
2023-01-01T09:19:41.624Z,101138.22
2023-01-01T09:22:12.687Z,101138.19
2023-01-01T09:24:39.674Z,101144.81
2023-01-01T09:27:06.380Z,101145.94
2023-01-01T09:29:33.210Z,101140.34
2023-01-01T09:32:01.178Z,101153.38
2023-01-01T09:34:28.330Z,101163.34
2023-01-01T09:36:55.218Z,101158.38
2023-01-01T09:39:22.011Z,101169.41
2023-01-01T09:42:02.999Z,101174.66
2023-01-01T09:44:54.596Z,101164.53
2023-01-01T09:47:33.076Z,101171.53
2023-01-01T09:50:11.856Z,101166.41
2023-01-01T09:52:48.666Z,101167.91
2023-01-01T09:55:25.100Z,101163.22
2023-01-01T09:57:52.140Z,101166.72
2023-01-01T10:00:19.893Z,101178.22
2023-01-01T10:03:32.239Z,101169.06
2023-01-01T10:06:20.467Z,101174.88
2023-01-01T10:09:11.493Z,101172.53
2023-01-01T10:11:52.329Z,101166.84
2023-01-01T10:14:36.478Z,101176.06
2023-01-01T10:17:13.970Z,101179.25
2023-01-01T10:19:48.449Z,101173.19
2023-01-01T10:22:18.533Z,101168.53
2023-01-01T10:25:01.231Z,101170.78
2023-01-01T10:27:34.828Z,101176.03
2023-01-01T10:30:05.264Z,101170.94
2023-01-01T10:32:39.187Z,101186.53
2023-01-01T10:35:35.598Z,101170.19
2023-01-01T10:38:04.493Z,101175.34
2023-01-01T10:40:31.963Z,101164.91
2023-01-01T10:43:01.973Z,101172.31
2023-01-01T10:45:50.542Z,101172.25
2023-01-01T10:48:22.835Z,101185.81
2023-01-01T10:50:51.955Z,101183.31
2023-01-01T10:53:38.222Z,101207.28
2023-01-01T10:56:13.867Z,101201.09
2023-01-01T10:58:45.118Z,101209.78
2023-01-01T11:01:18.259Z,101203.75
2023-01-01T11:04:00.693Z,101214.78
2023-01-01T11:06:45.695Z,101212.69
2023-01-01T11:09:26.598Z,101221.88
2023-01-01T11:12:46.190Z,101209.78
2023-01-01T11:15:05.989Z,101208.25
2023-01-01T11:17:35.020Z,101210.09
2023-01-01T11:20:03.291Z,101203.31
2023-01-01T11:22:51.220Z,101185.81
2023-01-01T11:25:26.999Z,101198.09
2023-01-01T11:28:23.338Z,101184.66
2023-01-01T11:31:05.749Z,101184.47
2023-01-01T11:33:35.814Z,101183.75
2023-01-01T11:36:03.063Z,101167.13
2023-01-01T11:38:30.738Z,101161.31
2023-01-01T11:41:04.001Z,101163.28
2023-01-01T11:43:38.441Z,101164.44
2023-01-01T11:46:11.220Z,101167.72
2023-01-01T11:48:42.843Z,101175.03
2023-01-01T11:51:11.977Z,101185.22
2023-01-01T11:53:41.925Z,101179.16
2023-01-01T11:56:15.920Z,101177.78
2023-01-01T11:58:54.832Z,101180.94
2023-01-01T12:01:32.502Z,101175.88
2023-01-01T12:04:05.748Z,101181.50
2023-01-01T12:07:09.691Z,101174.16
2023-01-01T12:10:08.798Z,101177.25
2023-01-01T12:12:43.197Z,101187.56
2023-01-01T12:15:39.665Z,101187.19
2023-01-01T12:18:15.855Z,101192.53
2023-01-01T12:20:50.886Z,101183.81
2023-01-01T12:23:18.784Z,101178.97
2023-01-01T12:25:49.928Z,101169.19
2023-01-01T12:28:25.754Z,101151.53
2023-01-01T12:31:03.860Z,101147.25
2023-01-01T12:33:43.243Z,101132.47
2023-01-01T12:36:35.655Z,101145.63
2023-01-01T12:39:30.540Z,101150.88
2023-01-01T12:42:14.322Z,101152.78
2023-01-01T12:45:30.946Z,101139.63
2023-01-01T12:48:24.901Z,101145.41
2023-01-01T12:51:01.482Z,101148.16
2023-01-01T12:53:45.282Z,101155.69
2023-01-01T12:56:22.596Z,101153.00
2023-01-01T12:59:00.875Z,101149.59
2023-01-01T13:01:34.416Z,101150.66
2023-01-01T13:04:09.017Z,101146.03
2023-01-01T13:06:51.865Z,101133.91
2023-01-01T13:09:27.169Z,101121.47
2023-01-01T13:12:06.301Z,101114.38
2023-01-01T13:14:41.654Z,101107.66
2023-01-01T13:17:26.750Z,101106.59
2023-01-01T13:20:15.271Z,101106.28
2023-01-01T13:22:44.811Z,101121.41
2023-01-01T13:25:11.810Z,101111.03
2023-01-01T13:27:58.279Z,101106.88
2023-01-01T13:30:37.514Z,101114.75
2023-01-01T13:33:21.553Z,101095.84
2023-01-01T13:36:13.340Z,101102.78
2023-01-01T13:38:54.272Z,101095.75
2023-01-01T13:41:27.835Z,101106.22
2023-01-01T13:44:12.352Z,101116.22
2023-01-01T13:46:43.056Z,101117.63
2023-01-01T13:49:36.164Z,101121.44
2023-01-01T13:52:24.872Z,101134.59
2023-01-01T13:55:17.876Z,101130.00
2023-01-01T13:58:08.146Z,101124.31
2023-01-01T14:01:01.285Z,101125.91
2023-01-01T14:03:28.826Z,101135.75
2023-01-01T14:05:58.947Z,101124.78
2023-01-01T14:08:34.443Z,101118.19
2023-01-01T14:11:02.359Z,101117.63
2023-01-01T14:13:32.590Z,101125.25
2023-01-01T14:16:03.957Z,101123.50
2023-01-01T14:18:35.140Z,101118.53
2023-01-01T14:21:02.315Z,101108.03
2023-01-01T14:23:35.917Z,101109.44
2023-01-01T14:26:04.678Z,101119.38
2023-01-01T14:28:33.353Z,101096.91
2023-01-01T14:31:08.631Z,101104.13
2023-01-01T14:33:39.141Z,101105.28
2023-01-01T14:36:16.327Z,101100.16
2023-01-01T14:38:45.561Z,101093.00
2023-01-01T14:41:31.832Z,101124.91
2023-01-01T14:44:14.031Z,101115.28
2023-01-01T14:46:42.508Z,101097.09
2023-01-01T14:49:11.108Z,101116.28
2023-01-01T14:51:44.649Z,101119.09
2023-01-01T14:54:21.198Z,101119.00
2023-01-01T14:56:50.579Z,101110.19
2023-01-01T14:59:31.656Z,101105.69
2023-01-01T15:02:00.845Z,101114.44
2023-01-01T15:04:28.714Z,101122.53
2023-01-01T15:07:01.709Z,101105.75
2023-01-01T15:09:29.159Z,101105.31
2023-01-01T15:11:56.951Z,101106.31
2023-01-01T15:14:38.721Z,101114.22
2023-01-01T15:17:13.922Z,101113.56
2023-01-01T15:19:44.698Z,101113.34
2023-01-01T15:22:17.746Z,101109.25
2023-01-01T15:24:45.545Z,101121.16
2023-01-01T15:27:38.769Z,101120.03
2023-01-01T15:30:13.580Z,101115.59
2023-01-01T15:32:40.808Z,101121.16
2023-01-01T15:35:22.747Z,101117.16
2023-01-01T15:38:01.171Z,101106.34
2023-01-01T15:40:32.603Z,101107.84
2023-01-01T15:42:59.345Z,101103.56
2023-01-01T15:45:26.265Z,101106.22
2023-01-01T15:47:58.879Z,101099.75
2023-01-01T15:50:30.620Z,101104.41
2023-01-01T15:52:59.919Z,101098.00
2023-01-01T15:55:30.628Z,101103.00
2023-01-01T15:57:58.206Z,101103.31
2023-01-01T16:00:38.487Z,101095.81
2023-01-01T16:03:19.250Z,101094.78
2023-01-01T16:05:50.873Z,101094.06
2023-01-01T16:08:20.126Z,101086.94
2023-01-01T16:10:48.748Z,101079.47
2023-01-01T16:13:15.660Z,101096.06
2023-01-01T16:15:52.612Z,101079.53
2023-01-01T16:18:20.020Z,101066.19
2023-01-01T16:20:47.682Z,101073.84
2023-01-01T16:23:16.472Z,101075.13
2023-01-01T16:25:43.424Z,101074.50
2023-01-01T16:28:10.219Z,101068.06
2023-01-01T16:30:37.163Z,101061.63
2023-01-01T16:33:11.059Z,101056.91
2023-01-01T16:35:38.779Z,101044.41
2023-01-01T16:38:05.640Z,101037.78
2023-01-01T16:40:37.457Z,101039.97
2023-01-01T16:43:10.125Z,101041.75
2023-01-01T16:45:37.210Z,101048.69
2023-01-01T16:48:04.321Z,101050.53
2023-01-01T16:50:31.089Z,101046.66
2023-01-01T16:52:57.897Z,101047.16
2023-01-01T16:55:29.765Z,101055.25
2023-01-01T16:58:21.071Z,101064.63
2023-01-01T17:00:43.682Z,101061.03
2023-01-01T17:03:10.514Z,101052.66
2023-01-01T17:05:42.210Z,101054.66
2023-01-01T17:08:11.106Z,101048.41
2023-01-01T17:10:37.987Z,101050.00
2023-01-01T17:13:05.977Z,101036.75
2023-01-01T17:15:38.194Z,101036.38
2023-01-01T17:18:05.084Z,101038.47
2023-01-01T17:20:31.977Z,101036.44
2023-01-01T17:22:58.781Z,101029.03
2023-01-01T17:25:25.954Z,101028.19
2023-01-01T17:27:52.635Z,101009.28
2023-01-01T17:30:19.402Z,101016.44
2023-01-01T17:32:46.245Z,100997.16
2023-01-01T17:35:13.052Z,101004.09
2023-01-01T17:37:39.943Z,101000.16
2023-01-01T17:40:07.624Z,100998.09
2023-01-01T17:42:35.223Z,100991.13
2023-01-01T17:45:02.489Z,100983.34
2023-01-01T17:47:32.772Z,100972.47
2023-01-01T17:50:00.200Z,100964.03
2023-01-01T17:52:27.757Z,100955.09
2023-01-01T17:54:54.537Z,100967.69
2023-01-01T17:57:21.267Z,100958.16
2023-01-01T17:59:48.097Z,100954.00
2023-01-01T18:02:15.318Z,100937.47
2023-01-01T18:04:42.310Z,100928.41
2023-01-01T18:07:09.202Z,100935.59
2023-01-01T18:09:38.476Z,100935.97
2023-01-01T18:12:06.425Z,100928.22
2023-01-01T18:14:33.256Z,100924.53
2023-01-01T18:17:00.057Z,100932.13
2023-01-01T18:19:27.856Z,100922.66
2023-01-01T18:21:55.120Z,100916.63
2023-01-01T18:24:21.870Z,100928.03
2023-01-01T18:26:48.723Z,100925.06
2023-01-01T18:29:15.550Z,100911.38
2023-01-01T18:31:43.797Z,100925.44
2023-01-01T18:34:11.457Z,100913.88
2023-01-01T18:36:39.529Z,100915.69
2023-01-01T18:39:14.307Z,100908.78
2023-01-01T18:42:02.534Z,100914.66
2023-01-01T18:44:31.715Z,100912.34
2023-01-01T18:47:05.312Z,100914.75
2023-01-01T18:49:33.143Z,100903.19
2023-01-01T18:52:06.001Z,100894.97
2023-01-01T18:54:33.624Z,100895.31
2023-01-01T18:57:10.543Z,100880.72
2023-01-01T18:59:38.142Z,100884.81
2023-01-01T19:02:29.288Z,100878.50
2023-01-01T19:05:01.072Z,100871.00
2023-01-01T19:07:27.871Z,100862.66
2023-01-01T19:09:59.242Z,100862.59
2023-01-01T19:12:28.588Z,100851.59
2023-01-01T19:14:55.372Z,100848.25
2023-01-01T19:17:23.566Z,100834.41
2023-01-01T19:19:52.602Z,100826.19
2023-01-01T19:22:31.467Z,100821.31
2023-01-01T19:25:02.272Z,100818.63
2023-01-01T19:27:34.092Z,100813.41
2023-01-01T19:30:02.010Z,100801.13
2023-01-01T19:32:28.794Z,100799.03
2023-01-01T19:34:56.382Z,100782.25
2023-01-01T19:37:23.101Z,100796.97
2023-01-01T19:39:51.628Z,100781.44
2023-01-01T19:42:18.670Z,100787.47
2023-01-01T19:44:46.097Z,100776.41
2023-01-01T19:47:12.812Z,100769.53
2023-01-01T19:49:40.205Z,100761.22
2023-01-01T19:52:07.539Z,100765.44
2023-01-01T19:54:34.470Z,100761.41
2023-01-01T20:20:11.466Z,100754.31
2023-01-01T20:22:40.112Z,100753.44
2023-01-01T20:25:07.482Z,100781.66
2023-01-01T20:27:34.696Z,100786.31
2023-01-01T20:30:01.654Z,100766.91
2023-01-01T20:32:28.871Z,100772.00
2023-01-01T20:34:55.991Z,100766.31
2023-01-01T20:37:38.092Z,100760.53
2023-01-01T20:40:07.475Z,100758.25
2023-01-01T20:42:34.575Z,100755.25
2023-01-01T20:45:10.309Z,100754.31
2023-01-01T20:47:39.347Z,100766.53
2023-01-01T20:50:06.849Z,100757.94
2023-01-01T20:52:33.748Z,100750.19
2023-01-01T20:55:00.622Z,100746.94
2023-01-01T20:57:29.414Z,100749.53
2023-01-01T20:59:56.306Z,100754.44
2023-01-01T21:02:23.465Z,100745.69
2023-01-01T21:04:51.153Z,100741.50
2023-01-01T21:07:18.557Z,100743.53
2023-01-01T21:09:50.729Z,100735.94
2023-01-01T21:12:18.425Z,100723.78
2023-01-01T21:14:51.244Z,100732.09
2023-01-01T21:17:22.158Z,100730.47
2023-01-01T21:19:54.725Z,100732.41
2023-01-01T21:22:21.748Z,100714.09
2023-01-01T21:24:54.398Z,100718.41
2023-01-01T21:27:34.162Z,100720.31
2023-01-01T21:30:01.609Z,100723.53
2023-01-01T21:32:39.093Z,100712.66
2023-01-01T21:35:24.260Z,100709.78
2023-01-01T21:37:55.269Z,100710.81
2023-01-01T21:40:31.624Z,100707.75
2023-01-01T21:43:04.206Z,100691.53
2023-01-01T21:45:44.292Z,100696.38
2023-01-01T21:48:23.004Z,100697.66
2023-01-01T21:50:52.045Z,100703.47
2023-01-01T21:53:21.430Z,100693.91
2023-01-01T21:55:52.520Z,100711.81
2023-01-01T21:58:43.455Z,100705.72
2023-01-01T22:01:24.038Z,100705.28
2023-01-01T22:04:11.963Z,100696.88
2023-01-01T22:07:56.620Z,100705.44
2023-01-01T22:10:19.780Z,100691.88
2023-01-01T22:12:47.358Z,100691.66
2023-01-01T22:15:27.895Z,100700.19
2023-01-01T22:17:59.892Z,100688.59
2023-01-01T22:20:26.913Z,100698.56
2023-01-01T22:22:58.874Z,100697.97
2023-01-01T22:25:32.181Z,100700.94
2023-01-01T22:28:05.739Z,100705.81
2023-01-01T22:30:36.002Z,100712.34
2023-01-01T22:33:03.387Z,100698.16
2023-01-01T22:35:32.584Z,100703.03
2023-01-01T22:38:03.183Z,100703.75
2023-01-01T22:40:35.201Z,100707.38
2023-01-01T22:43:12.637Z,100708.66
2023-01-01T22:45:43.514Z,100706.25
2023-01-01T22:48:19.105Z,100699.06
2023-01-01T22:50:46.202Z,100702.75
2023-01-01T22:53:13.025Z,100702.72
2023-01-01T22:55:39.793Z,100697.94
2023-01-01T22:58:06.549Z,100685.28
2023-01-01T23:00:33.443Z,100677.28
2023-01-01T23:03:01.023Z,100676.72
2023-01-01T23:05:27.952Z,100679.84
2023-01-01T23:07:54.785Z,100678.00
2023-01-01T23:10:21.753Z,100669.72
2023-01-01T23:12:48.468Z,100659.53
2023-01-01T23:15:33.919Z,100666.88
2023-01-01T23:18:00.903Z,100662.72
2023-01-01T23:20:28.343Z,100650.22
2023-01-01T23:22:56.189Z,100649.38
2023-01-01T23:25:24.129Z,100647.59
2023-01-01T23:27:52.479Z,100663.03
2023-01-01T23:30:19.616Z,100649.78
2023-01-01T23:32:46.768Z,100659.19
2023-01-01T23:35:13.865Z,100648.03
2023-01-01T23:37:40.784Z,100650.88
2023-01-01T23:40:09.632Z,100651.84
2023-01-01T23:42:36.513Z,100658.25
2023-01-01T23:45:04.256Z,100648.53
2023-01-01T23:47:31.179Z,100654.59
2023-01-01T23:49:58.248Z,100640.22
2023-01-01T23:52:25.408Z,100644.63
2023-01-01T23:54:52.167Z,100641.81
2023-01-01T23:57:18.985Z,100636.81
2023-01-01T23:59:45.724Z,100633.00
